createdAt,value
2024-03-01T00:00:02.256Z,73.39
2024-03-01T00:01:02.316Z,71.81
2024-03-01T00:02:02.277Z,72.67
2024-03-01T00:03:02.187Z,72.98
2024-03-01T00:04:02.188Z,72.13
2024-03-01T00:05:02.133Z,72.42
2024-03-01T00:06:02.126Z,72.04
2024-03-01T00:07:02.181Z,73.18
2024-03-01T00:08:02.209Z,72.58
2024-03-01T00:09:02.092Z,70.38
2024-03-01T00:10:02.216Z,70.69
2024-03-01T00:11:02.078Z,69.86
2024-03-01T00:12:02.036Z,68.59
2024-03-01T00:13:02.111Z,72.99
2024-03-01T00:14:02.039Z,70.61
2024-03-01T00:15:01.971Z,72.95
2024-03-01T00:16:02.044Z,74.73
2024-03-01T00:17:01.980Z,72.88
2024-03-01T00:18:01.968Z,72.75
2024-03-01T00:19:01.932Z,75.01
2024-03-01T00:20:01.877Z,71.41
2024-03-01T00:21:01.862Z,71.62
2024-03-01T00:22:01.906Z,71.63
2024-03-01T00:23:01.797Z,73.40
2024-03-01T00:24:01.956Z,71.46
2024-03-01T00:25:01.842Z,72.37
2024-03-01T00:26:01.888Z,71.32
2024-03-01T00:27:01.739Z,69.15
2024-03-01T00:28:01.754Z,73.10
2024-03-01T00:29:01.730Z,72.00
2024-03-01T00:30:01.678Z,70.75
2024-03-01T00:31:01.702Z,71.81
2024-03-01T00:32:01.667Z,73.43
2024-03-01T00:33:01.682Z,74.16
2024-03-01T00:34:01.623Z,69.13
2024-03-01T00:35:01.620Z,72.17
2024-03-01T00:36:01.581Z,74.86
2024-03-01T00:37:01.621Z,71.34
2024-03-01T00:38:01.544Z,72.23
2024-03-01T00:39:01.548Z,68.66
2024-03-01T00:40:01.617Z,74.90
2024-03-01T00:41:01.485Z,70.77
2024-03-01T00:42:01.556Z,73.15
2024-03-01T00:43:01.536Z,71.35
2024-03-01T00:44:01.418Z,72.63
2024-03-01T00:45:01.396Z,73.55
2024-03-01T00:46:02.446Z,70.54
2024-03-01T00:47:01.391Z,72.78
2024-03-01T00:48:01.388Z,72.91
2024-03-01T00:49:01.360Z,73.05
2024-03-01T00:50:01.323Z,69.56
2024-03-01T00:51:01.290Z,68.58
2024-03-01T00:52:01.355Z,70.93
2024-03-01T00:53:01.264Z,73.80
2024-03-01T00:54:01.234Z,72.64
2024-03-01T00:55:01.249Z,73.64
2024-03-01T00:56:01.225Z,72.43
2024-03-01T00:57:01.228Z,72.62
2024-03-01T00:58:01.293Z,70.02
2024-03-01T00:59:01.170Z,69.96
2024-03-01T01:00:01.242Z,73.88
2024-03-01T01:01:01.159Z,71.70
2024-03-01T01:02:01.213Z,72.94
2024-03-01T01:03:01.147Z,72.50
2024-03-01T01:04:01.101Z,72.87
2024-03-01T01:05:01.082Z,73.59
2024-03-01T01:06:01.047Z,73.83
2024-03-01T01:07:01.664Z,73.72
2024-03-01T01:08:01.121Z,70.20
2024-03-01T01:09:00.975Z,73.70
2024-03-01T01:10:00.989Z,71.73
2024-03-01T01:11:00.971Z,69.72
2024-03-01T01:12:00.962Z,73.43
2024-03-01T01:13:00.962Z,70.33
2024-03-01T01:14:01.010Z,72.29
2024-03-01T01:15:00.886Z,70.56
2024-03-01T01:16:00.910Z,69.90
2024-03-01T01:17:00.815Z,68.22
2024-03-01T01:18:00.881Z,73.17
2024-03-01T01:19:00.835Z,71.49
2024-03-01T01:20:00.783Z,67.78
2024-03-01T01:21:00.734Z,73.18
2024-03-01T01:22:00.750Z,71.31
2024-03-01T01:23:00.721Z,70.76
2024-03-01T01:24:00.713Z,71.15
2024-03-01T01:25:00.731Z,73.07
2024-03-01T01:26:00.672Z,70.77
2024-03-01T01:27:00.632Z,73.91
2024-03-01T01:28:00.717Z,71.53
2024-03-01T01:29:00.627Z,72.76
2024-03-01T01:30:00.652Z,74.14
2024-03-01T01:31:00.568Z,72.15
2024-03-01T01:32:00.545Z,71.51
2024-03-01T01:33:00.552Z,69.62
2024-03-01T01:34:00.591Z,71.86
2024-03-01T01:35:00.563Z,70.51
2024-03-01T01:36:00.478Z,72.74
2024-03-01T01:37:00.480Z,74.23
2024-03-01T01:38:01.504Z,72.50
2024-03-01T01:39:00.445Z,71.56
2024-03-01T01:40:00.560Z,68.47
2024-03-01T01:41:00.504Z,69.82
2024-03-01T01:42:00.365Z,72.23
2024-03-01T01:43:00.347Z,69.23
2024-03-01T01:44:00.329Z,73.55
2024-03-01T01:45:00.311Z,75.63
2024-03-01T01:46:01.318Z,73.54
2024-03-01T01:47:00.295Z,71.41
2024-03-01T01:48:00.274Z,73.00
2024-03-01T01:49:00.254Z,73.17
2024-03-01T01:50:00.208Z,72.89
2024-03-01T01:51:01.227Z,72.69
2024-03-01T01:52:00.264Z,73.13
2024-03-01T01:53:00.189Z,69.28
2024-03-01T01:54:00.164Z,67.90
2024-03-01T01:55:00.168Z,72.26
2024-03-01T01:56:00.651Z,73.33
2024-03-01T01:57:00.093Z,75.63
2024-03-01T01:58:00.156Z,71.92
2024-03-01T01:59:00.063Z,73.14
2024-03-01T02:00:00.005Z,72.73
2024-03-01T02:01:00.055Z,72.85
2024-03-01T02:02:00.263Z,73.54
2024-03-01T02:03:00.602Z,71.37
2024-03-01T02:03:59.968Z,71.79
2024-03-01T02:04:59.945Z,73.15
2024-03-01T02:05:59.936Z,73.61
2024-03-01T02:06:59.938Z,72.32
2024-03-01T02:07:59.882Z,73.75
2024-03-01T02:08:59.884Z,72.53
2024-03-01T02:10:00.905Z,73.09
2024-03-01T02:10:59.821Z,74.10
2024-03-01T02:11:59.852Z,73.39
2024-03-01T02:12:59.857Z,72.67
2024-03-01T02:13:59.802Z,71.90
2024-03-01T02:14:59.743Z,73.81
2024-03-01T02:15:59.770Z,68.30
2024-03-01T02:16:59.709Z,73.45
2024-03-01T02:17:59.869Z,72.84
2024-03-01T02:18:59.710Z,71.60
2024-03-01T02:19:59.697Z,71.20
2024-03-01T02:20:59.640Z,74.94
2024-03-01T02:21:59.699Z,73.38
2024-03-01T02:22:59.638Z,73.84
2024-03-01T02:23:59.593Z,72.10
2024-03-01T02:24:59.594Z,73.54
2024-03-01T02:25:59.543Z,69.26
2024-03-01T02:27:02.596Z,68.20
2024-03-01T02:28:00.524Z,72.60
2024-03-01T02:28:59.490Z,70.70
2024-03-01T02:29:59.498Z,74.08
2024-03-01T02:30:59.552Z,72.66
2024-03-01T02:31:59.422Z,70.88
2024-03-01T02:32:59.427Z,71.90
2024-03-01T02:33:59.507Z,73.45
2024-03-01T02:34:59.379Z,73.84
2024-03-01T02:35:59.382Z,71.92
2024-03-01T02:36:59.393Z,73.09
2024-03-01T02:37:59.305Z,71.00
2024-03-01T02:38:59.312Z,73.89
2024-03-01T02:39:59.311Z,73.29
2024-03-01T02:40:59.254Z,73.17
2024-03-01T02:41:59.361Z,70.61
2024-03-01T02:42:59.261Z,71.83
2024-03-01T02:43:59.230Z,73.16
2024-03-01T02:44:59.210Z,73.73
2024-03-01T02:45:59.199Z,73.18
2024-03-01T02:46:59.221Z,73.98
2024-03-01T02:47:59.173Z,73.68
2024-03-01T02:48:59.134Z,72.96
2024-03-01T02:49:59.110Z,74.13
2024-03-01T02:50:59.082Z,74.11
2024-03-01T02:51:59.126Z,71.66
2024-03-01T02:52:59.088Z,72.26
2024-03-01T02:53:59.037Z,72.62
2024-03-01T02:54:59.024Z,73.71
2024-03-01T02:55:59.000Z,74.40
2024-03-01T02:56:58.972Z,72.83
2024-03-01T02:57:59.170Z,73.85
2024-03-01T02:58:58.937Z,72.30
2024-03-01T02:59:58.919Z,75.56
2024-03-01T03:00:59.058Z,72.03
2024-03-01T03:01:58.907Z,70.07
2024-03-01T03:02:58.868Z,72.22
2024-03-01T03:03:59.001Z,73.43
2024-03-01T03:04:58.830Z,72.03
2024-03-01T03:05:58.819Z,72.22
2024-03-01T03:06:59.297Z,73.92
2024-03-01T03:08:00.010Z,73.67
2024-03-01T03:08:58.788Z,74.35
2024-03-01T03:09:58.748Z,71.11
2024-03-01T03:10:58.751Z,73.03
2024-03-01T03:11:58.695Z,72.47
2024-03-01T03:12:58.745Z,72.43
2024-03-01T03:13:58.668Z,72.21
2024-03-01T03:14:58.670Z,72.74
2024-03-01T03:15:58.671Z,73.30
2024-03-01T03:16:58.608Z,74.49
2024-03-01T03:17:58.622Z,71.75
2024-03-01T03:18:58.585Z,73.26
2024-03-01T03:19:58.588Z,72.01
2024-03-01T03:20:58.529Z,72.93
2024-03-01T03:21:58.662Z,71.96
2024-03-01T03:22:58.492Z,69.89
2024-03-01T03:23:58.478Z,72.02
2024-03-01T03:24:58.536Z,74.05
2024-03-01T03:25:58.468Z,72.71
2024-03-01T03:26:58.417Z,73.69
2024-03-01T03:27:58.429Z,74.48
2024-03-01T03:28:58.381Z,71.08
2024-03-01T03:29:58.368Z,73.74
2024-03-01T03:30:58.396Z,73.09
2024-03-01T03:31:58.345Z,71.98
2024-03-01T03:32:58.363Z,73.18
2024-03-01T03:33:58.300Z,73.27
2024-03-01T03:34:58.279Z,74.01
2024-03-01T03:35:58.275Z,74.52
2024-03-01T03:36:58.283Z,73.39
2024-03-01T03:37:58.233Z,72.51
2024-03-01T03:38:58.206Z,73.02
2024-03-01T03:39:58.191Z,72.94
2024-03-01T03:40:58.164Z,74.79
2024-03-01T03:41:58.186Z,72.25
2024-03-01T03:42:58.177Z,69.71
2024-03-01T03:43:58.123Z,74.58
2024-03-01T03:44:58.098Z,73.44
2024-03-01T03:45:58.101Z,73.34
2024-03-01T03:46:58.055Z,72.51
2024-03-01T03:47:58.088Z,72.61
2024-03-01T03:48:58.040Z,72.29
2024-03-01T03:49:58.007Z,74.14
2024-03-01T03:50:57.992Z,73.40
2024-03-01T03:51:58.007Z,74.26
2024-03-01T03:52:57.978Z,72.35
2024-03-01T03:53:57.957Z,72.85
2024-03-01T03:54:57.934Z,72.34
2024-03-01T03:55:57.909Z,73.24
2024-03-01T03:56:57.879Z,73.68
2024-03-01T03:57:57.917Z,74.44
2024-03-01T03:58:57.961Z,75.13
2024-03-01T03:59:57.837Z,75.44
2024-03-01T04:00:57.929Z,72.31
2024-03-01T04:01:57.863Z,73.43
2024-03-01T04:02:57.775Z,73.59
2024-03-01T04:03:57.821Z,74.73
2024-03-01T04:04:57.734Z,73.46
2024-03-01T04:05:57.717Z,74.00
2024-03-01T04:06:57.721Z,75.17
2024-03-01T04:07:57.678Z,72.70
2024-03-01T04:08:57.663Z,72.41
2024-03-01T04:09:57.806Z,73.72
2024-03-01T04:10:57.637Z,72.53
2024-03-01T04:11:57.625Z,73.47
2024-03-01T04:12:57.614Z,74.61
2024-03-01T04:13:57.576Z,76.12
2024-03-01T04:14:57.594Z,75.33
2024-03-01T04:15:57.574Z,75.84
2024-03-01T04:16:57.523Z,74.28
2024-03-01T04:17:57.533Z,74.58
2024-03-01T04:18:57.562Z,74.64
2024-03-01T04:19:57.449Z,73.67
2024-03-01T04:20:57.491Z,75.62
2024-03-01T04:21:57.444Z,74.90
2024-03-01T04:22:57.425Z,72.71
2024-03-01T04:23:57.400Z,73.17
2024-03-01T04:24:57.421Z,71.22
2024-03-01T04:25:57.508Z,73.00
2024-03-01T04:26:58.324Z,76.73
2024-03-01T04:27:57.369Z,73.11
2024-03-01T04:28:57.287Z,73.74
2024-03-01T04:29:57.284Z,75.04
2024-03-01T04:30:57.303Z,74.76
2024-03-01T04:31:57.276Z,76.28
2024-03-01T04:32:57.234Z,76.26
2024-03-01T04:33:57.226Z,75.71
2024-03-01T04:34:57.205Z,73.75
2024-03-01T04:35:57.173Z,75.26
2024-03-01T04:36:57.186Z,74.54
2024-03-01T04:37:57.135Z,74.65
2024-03-01T04:38:57.098Z,74.67
2024-03-01T04:39:57.163Z,74.93
2024-03-01T04:40:57.088Z,76.53
2024-03-01T04:41:57.159Z,73.50
2024-03-01T04:42:57.082Z,74.13
2024-03-01T04:43:57.034Z,75.59
2024-03-01T04:44:57.010Z,75.23
2024-03-01T04:45:56.996Z,75.72
2024-03-01T04:46:56.963Z,76.01
2024-03-01T04:47:56.980Z,72.91
2024-03-01T04:48:57.011Z,76.06
2024-03-01T04:49:56.912Z,74.12
2024-03-01T04:50:56.874Z,74.76
2024-03-01T04:51:56.877Z,76.59
2024-03-01T04:52:56.859Z,74.29
2024-03-01T04:53:56.856Z,73.60
2024-03-01T04:54:56.878Z,73.32
2024-03-01T04:55:56.782Z,74.90
2024-03-01T04:56:56.789Z,75.33
2024-03-01T04:57:56.805Z,75.39
2024-03-01T04:58:56.873Z,77.44
2024-03-01T04:59:56.704Z,75.99
2024-03-01T05:00:56.793Z,74.74
2024-03-01T05:01:57.676Z,74.33
2024-03-01T05:02:56.649Z,75.24
2024-03-01T05:03:56.712Z,74.41
2024-03-01T05:04:56.729Z,76.00
2024-03-01T05:05:56.615Z,76.01
2024-03-01T05:06:56.589Z,75.74
2024-03-01T05:07:56.580Z,74.39
2024-03-01T05:08:56.543Z,75.25
2024-03-01T05:09:56.614Z,74.19
2024-03-01T05:10:56.677Z,76.32
2024-03-01T05:11:56.522Z,75.95
2024-03-01T05:12:56.528Z,76.58
2024-03-01T05:13:56.563Z,75.80
2024-03-01T05:14:56.452Z,75.03
2024-03-01T05:15:56.575Z,74.04
2024-03-01T05:16:56.430Z,75.39
2024-03-01T05:17:56.446Z,76.17
2024-03-01T05:18:56.413Z,75.52
2024-03-01T05:19:56.362Z,73.66
2024-03-01T05:20:56.378Z,76.33
2024-03-01T05:21:56.342Z,76.26
2024-03-01T05:22:56.306Z,75.85
2024-03-01T05:23:56.303Z,76.35
2024-03-01T05:24:56.309Z,74.97
2024-03-01T05:25:56.263Z,75.25
2024-03-01T05:26:56.249Z,75.05
2024-03-01T05:27:56.237Z,74.96
2024-03-01T05:28:56.211Z,75.92
2024-03-01T05:29:56.230Z,77.25
2024-03-01T05:31:03.616Z,77.50
2024-03-01T05:31:57.212Z,75.95
2024-03-01T05:32:56.177Z,76.16
2024-03-01T05:33:56.157Z,75.21
2024-03-01T05:34:56.070Z,75.10
2024-03-01T05:35:56.643Z,76.58
2024-03-01T05:36:56.054Z,76.10
2024-03-01T05:37:56.072Z,77.55
2024-03-01T05:38:56.018Z,76.87
2024-03-01T05:39:56.704Z,74.64
2024-03-01T05:40:56.336Z,75.36
2024-03-01T05:41:56.959Z,74.36
2024-03-01T05:42:55.973Z,76.07
2024-03-01T05:43:55.929Z,77.48
2024-03-01T05:44:55.917Z,73.15
2024-03-01T05:45:56.029Z,77.22
2024-03-01T05:46:55.865Z,76.23
2024-03-01T05:47:55.851Z,76.29
2024-03-01T05:48:56.650Z,74.46
2024-03-01T05:49:55.831Z,77.46
2024-03-01T05:50:55.782Z,79.21
2024-03-01T05:51:55.814Z,76.79
2024-03-01T05:52:55.774Z,76.24
2024-03-01T05:53:55.761Z,77.10
2024-03-01T05:54:55.729Z,76.64
2024-03-01T05:55:55.699Z,77.64
2024-03-01T05:56:55.686Z,75.98
2024-03-01T05:57:55.678Z,76.13
2024-03-01T05:58:55.634Z,75.30
2024-03-01T05:59:55.642Z,75.53
2024-03-01T06:00:55.656Z,76.59
2024-03-01T06:01:55.753Z,76.25
2024-03-01T06:02:58.381Z,76.39
2024-03-01T06:03:56.562Z,75.81
2024-03-01T06:04:55.653Z,76.99
2024-03-01T06:05:55.571Z,76.86
2024-03-01T06:06:55.536Z,74.35
2024-03-01T06:07:55.481Z,75.18
2024-03-01T06:08:55.484Z,76.09
2024-03-01T06:09:55.481Z,76.19
2024-03-01T06:10:55.495Z,76.22
2024-03-01T06:11:55.451Z,77.27
2024-03-01T06:12:58.943Z,76.20
2024-03-01T06:13:55.390Z,75.58
2024-03-01T06:14:55.360Z,75.42
2024-03-01T06:15:55.502Z,75.63
2024-03-01T06:16:55.335Z,75.45
2024-03-01T06:17:55.525Z,75.91
2024-03-01T06:18:55.335Z,75.51
2024-03-01T06:19:55.296Z,74.93
2024-03-01T06:20:55.241Z,75.46
2024-03-01T06:21:55.307Z,75.34
2024-03-01T06:22:55.220Z,75.83
2024-03-01T06:23:55.202Z,76.69
2024-03-01T06:24:55.225Z,76.55
2024-03-01T06:25:55.169Z,76.93
2024-03-01T06:26:55.149Z,76.10
2024-03-01T06:27:55.177Z,76.20
2024-03-01T06:28:55.113Z,77.09
2024-03-01T06:29:55.153Z,76.96
2024-03-01T06:30:55.111Z,75.91
2024-03-01T06:31:55.054Z,75.72
2024-03-01T06:32:55.351Z,76.18
2024-03-01T06:33:55.067Z,76.38
2024-03-01T06:34:54.996Z,76.98
2024-03-01T06:35:54.971Z,77.22
2024-03-01T06:36:54.991Z,76.54
2024-03-01T06:37:54.966Z,75.98
2024-03-01T06:38:54.915Z,75.36
2024-03-01T06:39:54.971Z,76.22
2024-03-01T06:40:54.895Z,76.09
2024-03-01T06:41:54.888Z,75.37
2024-03-01T06:42:54.889Z,74.87
2024-03-01T06:43:54.870Z,76.30
2024-03-01T06:44:54.821Z,74.93
2024-03-01T06:45:54.833Z,76.62
2024-03-01T06:46:54.777Z,74.80
2024-03-01T06:47:54.826Z,74.68
2024-03-01T06:48:54.812Z,76.06
2024-03-01T06:49:54.713Z,76.63
2024-03-01T06:50:54.710Z,75.10
2024-03-01T06:51:54.679Z,76.17
2024-03-01T06:52:54.675Z,75.89
2024-03-01T06:53:54.629Z,74.20
2024-03-01T06:54:54.738Z,76.75
2024-03-01T06:55:54.622Z,76.35
2024-03-01T06:56:54.592Z,76.25
2024-03-01T06:57:54.635Z,77.38
2024-03-01T06:58:54.563Z,75.08
2024-03-01T06:59:54.569Z,77.17
2024-03-01T07:00:54.585Z,76.51
2024-03-01T07:01:54.545Z,74.26
2024-03-01T07:02:54.487Z,76.28
2024-03-01T07:03:54.500Z,75.89
2024-03-01T07:04:54.489Z,76.79
2024-03-01T07:05:54.583Z,75.00
2024-03-01T07:06:54.460Z,75.46
2024-03-01T07:07:55.384Z,74.72
2024-03-01T07:08:54.366Z,76.23
2024-03-01T07:09:54.417Z,76.44
2024-03-01T07:10:54.428Z,75.13
2024-03-01T07:11:54.319Z,76.57
2024-03-01T07:12:54.370Z,73.97
2024-03-01T07:13:54.282Z,74.49
2024-03-01T07:14:54.270Z,75.69
2024-03-01T07:15:54.285Z,75.79
2024-03-01T07:16:54.256Z,77.21
2024-03-01T07:17:54.237Z,76.72
2024-03-01T07:18:54.207Z,76.02
2024-03-01T07:19:54.163Z,77.61
2024-03-01T07:20:54.141Z,75.04
2024-03-01T07:21:54.320Z,75.86
2024-03-01T07:22:54.143Z,75.83
2024-03-01T07:23:54.098Z,75.15
2024-03-01T07:24:54.088Z,75.60
2024-03-01T07:25:54.050Z,76.16
2024-03-01T07:26:54.050Z,75.49
2024-03-01T07:27:54.113Z,75.48
2024-03-01T07:28:54.000Z,75.17
2024-03-01T07:29:53.977Z,76.50
2024-03-01T07:30:54.059Z,75.65
2024-03-01T07:31:53.944Z,75.31
2024-03-01T07:32:53.975Z,74.45
2024-03-01T07:33:54.008Z,75.07
2024-03-01T07:34:53.898Z,74.68
2024-03-01T07:35:53.888Z,74.27
2024-03-01T07:36:53.917Z,75.94
2024-03-01T07:37:53.955Z,75.10
2024-03-01T07:38:53.855Z,71.48
2024-03-01T07:39:53.868Z,73.33
2024-03-01T07:40:53.802Z,74.04
2024-03-01T07:41:53.782Z,74.83
2024-03-01T07:42:53.801Z,74.29
2024-03-01T07:43:53.866Z,73.11
2024-03-01T07:44:53.713Z,71.92
2024-03-01T07:45:53.689Z,72.50
2024-03-01T07:46:53.687Z,71.10
2024-03-01T07:47:53.708Z,73.66
2024-03-01T07:48:53.666Z,75.90
2024-03-01T07:49:53.652Z,73.52
2024-03-01T07:50:53.606Z,73.43
2024-03-01T07:51:53.854Z,72.61
2024-03-01T07:52:53.567Z,75.53
2024-03-01T07:53:53.660Z,73.01
2024-03-01T07:54:53.570Z,72.62
2024-03-01T07:55:53.574Z,73.08
2024-03-01T07:56:53.501Z,75.40
2024-03-01T07:57:53.531Z,75.19
2024-03-01T07:58:53.514Z,73.29
2024-03-01T07:59:53.434Z,75.47
2024-03-01T08:00:53.496Z,73.78
2024-03-01T08:01:53.441Z,75.18
2024-03-01T08:02:53.403Z,72.62
2024-03-01T08:03:55.484Z,74.16
2024-03-01T08:04:54.415Z,74.58
2024-03-01T08:05:53.351Z,73.12
2024-03-01T08:06:53.379Z,72.95
2024-03-01T08:07:53.298Z,72.76
2024-03-01T08:08:53.275Z,72.71
2024-03-01T08:09:53.307Z,74.14
2024-03-01T08:10:53.270Z,73.88
2024-03-01T08:11:53.265Z,76.98
2024-03-01T08:12:53.257Z,72.45
2024-03-01T08:13:53.198Z,71.00
2024-03-01T08:14:53.198Z,75.24
2024-03-01T08:15:53.212Z,74.82
2024-03-01T08:16:53.178Z,75.32
2024-03-01T08:17:53.155Z,73.53
2024-03-01T08:18:53.147Z,74.82
2024-03-01T08:19:53.078Z,75.24
2024-03-01T08:20:53.080Z,75.05
2024-03-01T08:21:53.070Z,74.31
2024-03-01T08:22:53.168Z,73.53
2024-03-01T08:23:53.026Z,73.39
2024-03-01T08:24:53.022Z,75.15
2024-03-01T08:25:53.092Z,75.17
2024-03-01T08:26:52.971Z,75.03
2024-03-01T08:27:53.029Z,73.42
2024-03-01T08:28:52.949Z,75.59
2024-03-01T08:29:52.922Z,75.33
2024-03-01T08:30:52.951Z,73.19
2024-03-01T08:31:52.870Z,75.31
2024-03-01T08:32:52.908Z,74.81
2024-03-01T08:33:52.919Z,75.00
2024-03-01T08:34:52.863Z,73.52
2024-03-01T08:35:52.821Z,73.91
2024-03-01T08:36:52.872Z,75.17
2024-03-01T08:37:52.786Z,74.56
2024-03-01T08:38:52.808Z,73.25
2024-03-01T08:39:52.872Z,74.30
2024-03-01T08:40:52.761Z,73.34
2024-03-01T08:41:52.730Z,74.89
2024-03-01T08:42:52.815Z,74.61
2024-03-01T08:43:52.679Z,72.77
2024-03-01T08:44:52.774Z,74.32
2024-03-01T08:45:52.656Z,74.67
2024-03-01T08:46:52.671Z,74.40
2024-03-01T08:47:52.730Z,73.26
2024-03-01T08:48:52.759Z,74.26
2024-03-01T08:49:53.808Z,73.57
2024-03-01T08:50:53.542Z,73.08
2024-03-01T08:51:52.545Z,74.88
2024-03-01T08:52:52.571Z,73.20
2024-03-01T08:53:52.483Z,73.43
2024-03-01T08:54:52.744Z,71.74
2024-03-01T08:55:52.726Z,73.55
2024-03-01T08:56:52.543Z,72.98
2024-03-01T08:57:52.433Z,74.91
2024-03-01T08:58:52.433Z,72.19
2024-03-01T08:59:52.374Z,71.25
2024-03-01T09:00:52.406Z,73.00
2024-03-01T09:01:52.331Z,73.83
2024-03-01T09:02:52.303Z,73.70
2024-03-01T09:03:52.255Z,73.57
2024-03-01T09:04:52.276Z,75.03
2024-03-01T09:05:52.238Z,74.79
2024-03-01T09:06:52.243Z,75.64
2024-03-01T09:07:52.183Z,76.22
2024-03-01T09:08:52.166Z,73.48
2024-03-01T09:09:52.132Z,74.97
2024-03-01T09:10:52.218Z,74.43
2024-03-01T09:11:52.141Z,74.08
2024-03-01T09:12:52.075Z,74.51
2024-03-01T09:13:52.047Z,73.55
2024-03-01T09:14:52.045Z,73.17
2024-03-01T09:15:52.021Z,74.58
2024-03-01T09:16:52.005Z,73.81
2024-03-01T09:17:52.060Z,74.47
2024-03-01T09:18:51.937Z,73.59
2024-03-01T09:19:51.932Z,73.82
2024-03-01T09:20:51.914Z,73.26
2024-03-01T09:21:51.876Z,74.58
2024-03-01T09:22:51.887Z,73.50
2024-03-01T09:23:51.850Z,73.29
2024-03-01T09:24:51.825Z,74.25
2024-03-01T09:25:51.804Z,73.80
2024-03-01T09:26:51.793Z,73.76
2024-03-01T09:27:51.748Z,72.95
2024-03-01T09:28:51.762Z,72.07
2024-03-01T09:29:51.706Z,73.25
2024-03-01T09:30:51.937Z,74.58
2024-03-01T09:31:51.676Z,72.40
2024-03-01T09:32:51.739Z,73.42
2024-03-01T09:33:51.670Z,75.13
2024-03-01T09:34:51.618Z,75.15
2024-03-01T09:35:51.898Z,72.99
2024-03-01T09:36:51.563Z,73.87
2024-03-01T09:37:51.558Z,72.77
2024-03-01T09:38:51.517Z,73.64
2024-03-01T09:39:51.582Z,75.55
2024-03-01T09:40:51.738Z,74.91
2024-03-01T09:41:51.470Z,74.67
2024-03-01T09:42:51.454Z,73.89
2024-03-01T09:43:51.412Z,74.71
2024-03-01T09:44:51.429Z,75.21
2024-03-01T09:45:51.487Z,75.87
2024-03-01T09:46:51.363Z,74.26
2024-03-01T09:47:51.369Z,74.80
2024-03-01T09:48:51.303Z,75.05
2024-03-01T09:49:51.280Z,75.68
2024-03-01T09:50:51.294Z,75.03
2024-03-01T09:51:51.228Z,74.14
2024-03-01T09:52:51.214Z,74.14
2024-03-01T09:53:51.209Z,73.32
2024-03-01T09:54:51.183Z,74.92
2024-03-01T09:55:51.215Z,73.41
2024-03-01T09:56:51.144Z,75.65
2024-03-01T09:57:51.138Z,72.80
2024-03-01T09:58:51.107Z,73.43
2024-03-01T09:59:51.078Z,72.23
2024-03-01T10:00:51.104Z,71.76
2024-03-01T10:01:51.183Z,74.16
2024-03-01T10:02:51.011Z,73.23
2024-03-01T10:03:50.995Z,73.31
2024-03-01T10:04:51.063Z,73.57
2024-03-01T10:05:51.981Z,73.37
2024-03-01T10:06:52.100Z,72.49
2024-03-01T10:07:50.919Z,71.95
2024-03-01T10:08:50.898Z,72.23
2024-03-01T10:09:50.879Z,73.09
2024-03-01T10:10:51.988Z,69.90
2024-03-01T10:11:50.894Z,72.84
2024-03-01T10:12:50.848Z,74.18
2024-03-01T10:13:50.810Z,71.29
2024-03-01T10:14:50.778Z,69.23
2024-03-01T10:15:50.756Z,70.22
2024-03-01T10:16:50.744Z,73.18
2024-03-01T10:17:50.941Z,73.47
2024-03-01T10:18:50.697Z,72.96
2024-03-01T10:19:50.683Z,72.65
2024-03-01T10:20:50.682Z,71.58
2024-03-01T10:21:50.665Z,72.08
2024-03-01T10:22:50.716Z,72.37
2024-03-01T10:23:50.654Z,71.83
2024-03-01T10:24:50.637Z,72.30
2024-03-01T10:25:51.978Z,73.98
2024-03-01T10:26:51.548Z,72.81
2024-03-01T10:27:50.542Z,72.74
2024-03-01T10:28:50.556Z,73.35
2024-03-01T10:29:50.520Z,72.38
2024-03-01T10:30:50.474Z,72.85
2024-03-01T10:31:50.495Z,73.70
2024-03-01T10:32:50.467Z,73.79
2024-03-01T10:33:51.827Z,72.63
2024-03-01T10:34:50.461Z,75.23
2024-03-01T10:35:50.385Z,74.91
2024-03-01T10:36:50.346Z,74.53
2024-03-01T10:37:50.400Z,73.39
2024-03-01T10:38:50.314Z,74.11
2024-03-01T10:39:50.322Z,73.22
2024-03-01T10:40:50.309Z,73.82
2024-03-01T10:41:50.351Z,73.54
2024-03-01T10:42:50.224Z,74.83
2024-03-01T10:43:50.200Z,74.80
2024-03-01T10:44:50.193Z,73.21
2024-03-01T10:45:50.209Z,74.18
2024-03-01T10:46:50.144Z,74.65
2024-03-01T10:47:50.144Z,73.96
2024-03-01T10:48:50.105Z,74.64
2024-03-01T10:49:50.183Z,73.69
2024-03-01T10:50:50.124Z,74.38
2024-03-01T10:51:50.059Z,73.48
2024-03-01T10:52:50.076Z,72.61
2024-03-01T10:53:49.984Z,74.20
2024-03-01T10:54:49.975Z,74.71
2024-03-01T10:55:49.968Z,74.75
2024-03-01T10:56:49.933Z,74.27
2024-03-01T10:57:49.906Z,74.55
2024-03-01T10:58:49.948Z,73.37
2024-03-01T10:59:49.859Z,73.60
2024-03-01T11:00:49.884Z,74.43
2024-03-01T11:01:49.965Z,73.62
2024-03-01T11:02:49.800Z,74.84
2024-03-01T11:03:50.775Z,73.56
2024-03-01T11:04:49.953Z,74.64
2024-03-01T11:05:49.752Z,73.69
2024-03-01T11:06:49.738Z,74.49
2024-03-01T11:07:49.742Z,75.23
2024-03-01T11:08:49.693Z,74.95
2024-03-01T11:09:49.663Z,72.10
2024-03-01T11:10:49.745Z,72.71
2024-03-01T11:11:49.650Z,73.22
2024-03-01T11:12:49.647Z,73.73
2024-03-01T11:13:49.629Z,73.80
2024-03-01T11:14:51.160Z,74.24
2024-03-01T11:15:49.619Z,75.31
2024-03-01T11:16:49.564Z,75.57
2024-03-01T11:17:49.614Z,74.39
2024-03-01T11:18:49.535Z,75.06
2024-03-01T11:19:49.488Z,75.71
2024-03-01T11:20:49.449Z,74.44
2024-03-01T11:21:49.549Z,75.97
2024-03-01T11:22:49.414Z,75.12
2024-03-01T11:23:49.474Z,74.30
2024-03-01T11:24:49.392Z,74.98
2024-03-01T11:25:49.396Z,74.38
2024-03-01T11:26:49.373Z,74.18
2024-03-01T11:27:49.342Z,73.15
2024-03-01T11:28:49.314Z,74.25
2024-03-01T11:29:49.353Z,74.59
2024-03-01T11:30:49.281Z,74.76
2024-03-01T11:31:49.285Z,75.42
2024-03-01T11:32:49.277Z,75.56
2024-03-01T11:33:49.239Z,75.06
2024-03-01T11:34:49.256Z,74.02
2024-03-01T11:35:49.204Z,75.09
2024-03-01T11:36:49.177Z,75.38
2024-03-01T11:37:49.309Z,75.70
2024-03-01T11:38:49.148Z,76.16
2024-03-01T11:39:49.139Z,74.64
2024-03-01T11:40:49.223Z,74.42
2024-03-01T11:41:49.123Z,70.55
2024-03-01T11:42:49.094Z,73.74
2024-03-01T11:43:50.213Z,75.25
2024-03-01T11:44:50.035Z,75.02
2024-03-01T11:45:49.042Z,74.35
2024-03-01T11:46:49.004Z,74.96
2024-03-01T11:47:48.988Z,74.69
2024-03-01T11:48:48.985Z,73.83
2024-03-01T11:49:48.957Z,73.88
2024-03-01T11:50:48.939Z,74.03
2024-03-01T11:51:48.952Z,74.15
2024-03-01T11:52:48.896Z,73.84
2024-03-01T11:53:48.914Z,73.67
2024-03-01T11:54:48.899Z,75.46
2024-03-01T11:55:48.910Z,74.03
2024-03-01T11:56:48.863Z,74.75
2024-03-01T11:57:48.831Z,74.61
2024-03-01T11:58:48.778Z,74.92
2024-03-01T11:59:48.761Z,74.86
2024-03-01T12:00:48.771Z,75.74
2024-03-01T12:01:51.398Z,74.24
2024-03-01T12:02:48.705Z,74.78
2024-03-01T12:03:48.692Z,73.41
2024-03-01T12:04:48.695Z,75.41
2024-03-01T12:05:48.676Z,75.94
2024-03-01T12:06:49.130Z,74.57
2024-03-01T12:07:49.692Z,74.81
2024-03-01T12:08:48.608Z,75.54
2024-03-01T12:09:48.599Z,75.04
2024-03-01T12:10:48.643Z,74.49
2024-03-01T12:11:48.654Z,73.32
2024-03-01T12:12:48.555Z,74.16
2024-03-01T12:13:48.586Z,75.42
2024-03-01T12:14:48.504Z,74.34
2024-03-01T12:15:48.504Z,75.23
2024-03-01T12:16:48.537Z,75.51
2024-03-01T12:17:48.494Z,75.71
2024-03-01T12:18:48.449Z,75.07
2024-03-01T12:19:48.463Z,74.92
2024-03-01T12:20:48.527Z,75.28
2024-03-01T12:21:48.433Z,74.70
2024-03-01T12:22:49.132Z,74.92
2024-03-01T12:23:49.357Z,75.39
2024-03-01T12:24:48.338Z,75.48
2024-03-01T12:25:48.396Z,74.16
2024-03-01T12:26:48.324Z,73.82
2024-03-01T12:27:48.303Z,72.61
2024-03-01T12:28:48.311Z,73.16
2024-03-01T12:29:48.274Z,75.39
2024-03-01T12:30:48.258Z,74.51
2024-03-01T12:31:48.230Z,72.92
2024-03-01T12:32:48.257Z,75.57
2024-03-01T12:33:48.182Z,74.54
2024-03-01T12:34:48.214Z,75.98
2024-03-01T12:35:48.165Z,74.80
2024-03-01T12:36:49.205Z,74.49
2024-03-01T12:37:48.132Z,74.01
2024-03-01T12:38:48.106Z,73.14
2024-03-01T12:39:48.076Z,73.82
2024-03-01T12:40:48.093Z,74.57
2024-03-01T12:41:48.093Z,74.70
2024-03-01T12:42:48.038Z,75.31
2024-03-01T12:43:48.133Z,74.51
2024-03-01T12:44:47.978Z,75.39
2024-03-01T12:45:47.996Z,75.22
2024-03-01T12:46:48.130Z,74.68
2024-03-01T12:47:47.989Z,74.61
2024-03-01T12:48:47.930Z,73.42
2024-03-01T12:49:47.916Z,75.41
2024-03-01T12:50:47.896Z,74.76
2024-03-01T12:51:47.905Z,74.20